Time;durP1;ratioP1;P1;durP2;ratioP2;P2;SDS_P1;SDS_P2;PMS_P1;PMS_P2;Temp;Humidity;BMP_temperature;BMP_pressure;BME280_temperature;BME280_humidity;BME280_pressure;Samples;Min_cycle;Max_cycle;Signal;HPM_P1;HPM_P2
2022/05/10 00:00:28;;;;;;;3.35;2.72;;;12.60;99.90;;;;;;5008040;28;20508;-77
2022/05/10 00:02:55;;;;;;;4.85;4.10;;;12.60;99.90;;;;;;5007642;28;20046;-77
2022/05/10 00:05:27;;;;;;;4.40;3.38;;;12.50;99.90;;;;;;5007874;28;20065;-78
2022/05/10 00:07:54;;;;;;;5.70;3.83;;;12.50;99.90;;;;;;5007659;28;20046;-77
2022/05/10 00:10:21;;;;;;;5.53;4.93;;;12.50;99.90;;;;;;5006550;28;20052;-77
2022/05/10 00:12:46;;;;;;;5.82;4.55;;;12.50;99.90;;;;;;5007470;28;20045;-77
2022/05/10 00:15:12;;;;;;;6.13;2.83;;;12.40;99.90;;;;;;5007428;28;20096;-77
2022/05/10 00:17:40;;;;;;;3.78;2.95;;;12.40;99.90;;;;;;5007494;28;20133;-77
2022/05/10 00:20:10;;;;;;;4.03;3.65;;;12.40;99.90;;;;;;5006591;28;20540;-78
2022/05/10 00:22:36;;;;;;;4.20;3.10;;;12.40;99.90;;;;;;5007098;28;20064;-78
2022/05/10 00:25:03;;;;;;;4.65;3.42;;;12.30;99.90;;;;;;5021275;28;20137;-78
2022/05/10 00:27:29;;;;;;;4.05;3.65;;;12.30;99.90;;;;;;5007944;28;20104;-77
2022/05/10 00:29:54;;;;;;;5.97;3.60;;;12.30;99.90;;;;;;5007199;28;20049;-77
2022/05/10 00:32:21;;;;;;;12.27;4.43;;;12.30;99.90;;;;;;5006929;28;20045;-77
2022/05/10 00:34:47;;;;;;;4.85;3.75;;;12.30;99.90;;;;;;5006927;28;20117;-77
2022/05/10 00:37:22;;;;;;;5.15;3.50;;;12.30;99.90;;;;;;5006672;28;20121;-77
2022/05/10 00:39:47;;;;;;;4.65;4.25;;;12.30;99.90;;;;;;5004585;28;20076;-77
2022/05/10 00:42:24;;;;;;;6.32;4.05;;;12.30;99.90;;;;;;5005684;28;20046;-77
2022/05/10 00:45:15;;;;;;;6.72;3.80;;;12.30;99.90;;;;;;5006790;28;20045;-77
2022/05/10 00:47:55;;;;;;;6.20;4.07;;;12.30;99.90;;;;;;5005444;28;20045;-77
2022/05/10 00:50:28;;;;;;;3.67;3.38;;;12.20;99.90;;;;;;5006257;28;20314;-77
2022/05/10 00:52:57;;;;;;;4.47;4.07;;;12.20;99.90;;;;;;5006670;28;20100;-77
2022/05/10 00:55:37;;;;;;;6.72;4.85;;;12.20;99.90;;;;;;5005893;28;20056;-77
2022/05/10 00:58:21;;;;;;;12.95;4.00;;;12.20;99.90;;;;;;5006523;28;20067;-78
2022/05/10 01:00:48;;;;;;;5.57;3.88;;;12.20;99.90;;;;;;5006793;28;20052;-77
2022/05/10 01:03:28;;;;;;;5.95;4.28;;;12.20;99.90;;;;;;5018732;23;20054;-77
2022/05/10 01:06:15;;;;;;;7.75;4.38;;;12.20;99.90;;;;;;5026279;28;20052;-77
2022/05/10 01:08:46;;;;;;;6.22;4.25;;;12.20;99.90;;;;;;5007869;28;20056;-78
2022/05/10 01:11:14;;;;;;;4.20;3.80;;;12.20;99.90;;;;;;5008426;28;20532;-77
2022/05/10 01:13:52;;;;;;;6.13;4.90;;;12.20;99.90;;;;;;5026294;28;20060;-77
2022/05/10 01:16:20;;;;;;;15.27;5.88;;;12.20;99.90;;;;;;5025518;28;20488;-77
2022/05/10 01:18:47;;;;;;;6.47;4.47;;;12.20;99.90;;;;;;5008382;28;20678;-77
2022/05/10 01:21:22;;;;;;;7.32;4.88;;;12.20;99.90;;;;;;5025469;28;20045;-77
2022/05/10 01:24:26;;;;;;;7.28;5.25;;;12.20;99.90;;;;;;5025184;28;20042;-77
2022/05/10 01:27:10;;;;;;;11.32;4.90;;;12.20;99.90;;;;;;5026022;28;20132;-77
2022/05/10 01:29:43;;;;;;;6.80;4.30;;;12.20;99.90;;;;;;5007943;28;20502;-77
2022/05/10 01:35:14;;;;;;;7.82;4.85;;;12.20;99.90;;;;;;5025573;28;20084;-77
2022/05/10 01:37:45;;;;;;;8.18;5.45;;;12.20;99.90;;;;;;5025764;28;20072;-77
2022/05/10 01:40:22;;;;;;;9.95;5.68;;;12.20;99.90;;;;;;5024559;28;20033;-77
2022/05/10 01:43:05;;;;;;;10.93;5.38;;;12.20;99.90;;;;;;5025599;28;20099;-77
2022/05/10 01:45:41;;;;;;;5.93;4.53;;;12.20;99.90;;;;;;5007792;28;20033;-78
2022/05/10 01:48:10;;;;;;;10.75;6.15;;;12.20;99.90;;;;;;5025524;28;20095;-77
2022/05/10 01:50:52;;;;;;;9.50;5.72;;;12.20;99.90;;;;;;5007646;28;20045;-77
2022/05/10 01:53:36;;;;;;;10.75;6.20;;;12.20;99.90;;;;;;5024852;28;20045;-77
2022/05/10 01:56:19;;;;;;;8.27;5.07;;;12.20;99.90;;;;;;5025080;28;20694;-78
2022/05/10 01:58:45;;;;;;;7.90;6.35;;;12.20;99.90;;;;;;5025239;28;20048;-77
2022/05/10 02:01:14;;;;;;;10.00;5.70;;;12.20;99.90;;;;;;5025060;28;20452;-77
2022/05/10 02:03:48;;;;;;;11.05;5.05;;;12.20;99.90;;;;;;5025419;28;20049;-77
2022/05/10 02:06:20;;;;;;;9.88;6.57;;;12.20;99.90;;;;;;5025024;28;20058;-77
2022/05/10 02:09:11;;;;;;;6.68;5.10;;;12.20;99.90;;;;;;5006553;28;20046;-77
2022/05/10 02:11:58;;;;;;;9.23;5.63;;;12.20;99.90;;;;;;5007881;28;20041;-77
2022/05/10 02:14:32;;;;;;;8.25;5.47;;;12.20;99.90;;;;;;5005032;28;20053;-77
2022/05/10 02:17:30;;;;;;;13.15;5.43;;;12.20;99.90;;;;;;5005888;28;20133;-77
2022/05/10 02:20:05;;;;;;;6.65;5.88;;;12.20;99.90;;;;;;4975752;28;20057;-77
2022/05/10 02:22:38;;;;;;;10.27;7.07;;;12.20;99.90;;;;;;5005708;28;20060;-79
2022/05/10 02:25:16;;;;;;;17.67;6.03;;;12.20;99.90;;;;;;5002659;28;20050;-77
2022/05/10 02:27:59;;;;;;;7.25;5.97;;;12.20;99.90;;;;;;5005472;28;20420;-77
2022/05/10 02:30:29;;;;;;;6.78;6.13;;;12.20;99.90;;;;;;5005336;28;20185;-77
2022/05/10 02:33:09;;;;;;;7.20;5.40;;;12.20;99.90;;;;;;5005535;28;20057;-77
2022/05/10 02:35:46;;;;;;;6.15;5.43;;;12.20;99.90;;;;;;5021902;28;20041;-77
2022/05/10 02:38:14;;;;;;;6.10;5.50;;;12.20;99.90;;;;;;5024851;28;20041;-77
2022/05/10 02:40:42;;;;;;;10.25;5.28;;;12.20;99.90;;;;;;5024077;28;20045;-78
2022/05/10 02:43:15;;;;;;;7.30;6.28;;;12.20;99.90;;;;;;5006832;28;20072;-77
2022/05/10 02:45:42;;;;;;;11.57;6.72;;;12.20;99.90;;;;;;5022727;28;20144;-77
2022/05/10 02:48:35;;;;;;;19.92;7.57;;;12.20;99.90;;;;;;5004944;28;20066;-77
2022/05/10 02:51:01;;;;;;;13.35;5.68;;;12.20;99.90;;;;;;5002169;28;20050;-80
2022/05/10 02:53:27;;;;;;;10.90;6.78;;;12.20;99.90;;;;;;5004875;28;20057;-78
2022/05/10 02:55:53;;;;;;;10.15;5.72;;;12.20;99.90;;;;;;5004764;28;20085;-77
2022/05/10 02:58:21;;;;;;;6.70;5.80;;;12.20;99.90;;;;;;5004990;28;20073;-77
2022/05/10 03:00:49;;;;;;;8.07;6.60;;;12.30;99.90;;;;;;5005156;28;20048;-77
2022/05/10 03:03:20;;;;;;;14.25;6.72;;;12.30;99.90;;;;;;5005726;28;20671;-77
2022/05/10 03:05:46;;;;;;;10.52;6.85;;;12.30;99.90;;;;;;5006873;28;20081;-77
2022/05/10 03:08:12;;;;;;;5.35;4.85;;;12.30;99.90;;;;;;5008388;28;20104;-77
2022/05/10 03:10:37;;;;;;;6.57;5.72;;;12.30;99.90;;;;;;5007944;28;20042;-77
2022/05/10 03:13:03;;;;;;;8.30;6.30;;;12.30;99.90;;;;;;5020183;28;20049;-78
2022/05/10 03:15:28;;;;;;;11.18;6.60;;;12.30;99.90;;;;;;5028654;28;20037;-77
2022/05/10 03:17:54;;;;;;;9.05;5.95;;;12.30;99.90;;;;;;5028359;28;20041;-77
2022/05/10 03:20:19;;;;;;;9.80;7.35;;;12.30;99.90;;;;;;5010274;28;20038;-77
2022/05/10 03:22:45;;;;;;;8.90;6.38;;;12.30;99.90;;;;;;5028316;28;20037;-77
2022/05/10 03:25:10;;;;;;;8.38;7.13;;;12.30;99.90;;;;;;5026867;28;20044;-77
2022/05/10 03:27:37;;;;;;;9.93;5.32;;;12.30;99.90;;;;;;5028433;28;20412;-78
2022/05/10 03:30:04;;;;;;;10.90;6.55;;;12.30;99.90;;;;;;5027800;28;20075;-77
2022/05/10 03:32:30;;;;;;;6.95;6.35;;;12.20;99.90;;;;;;5028122;28;20041;-77
2022/05/10 03:34:59;;;;;;;7.63;5.57;;;12.30;99.90;;;;;;5010760;28;20042;-77
2022/05/10 03:37:28;;;;;;;10.07;6.57;;;12.30;99.90;;;;;;5009973;28;20065;-77
2022/05/10 03:39:53;;;;;;;9.85;5.72;;;12.30;99.90;;;;;;5026736;28;20531;-77
2022/05/10 03:42:19;;;;;;;6.70;5.22;;;12.30;99.90;;;;;;5027311;28;20044;-78
2022/05/10 03:44:50;;;;;;;8.10;5.75;;;12.30;99.90;;;;;;5010562;28;20479;-77
2022/05/10 03:47:18;;;;;;;19.15;6.03;;;12.30;99.90;;;;;;5027345;28;20388;-77
2022/05/10 03:49:45;;;;;;;15.75;6.97;;;12.30;99.90;;;;;;5009792;28;20042;-77
2022/05/10 03:52:11;;;;;;;8.07;6.22;;;12.30;99.90;;;;;;5026994;28;20484;-78
2022/05/10 03:54:37;;;;;;;7.85;5.93;;;12.30;99.90;;;;;;5026839;28;20556;-77
2022/05/10 03:57:02;;;;;;;6.47;5.70;;;12.30;99.90;;;;;;5026018;28;20049;-75
2022/05/10 03:59:28;;;;;;;7.40;5.95;;;12.30;99.90;;;;;;5027902;28;20192;-75
2022/05/10 04:01:53;;;;;;;7.40;6.07;;;12.30;99.90;;;;;;5027572;28;20053;-75
2022/05/10 04:04:19;;;;;;;8.80;5.80;;;12.30;99.90;;;;;;5026923;28;20103;-75
2022/05/10 04:06:45;;;;;;;10.07;6.00;;;12.40;99.90;;;;;;5027753;28;20506;-75
2022/05/10 04:09:10;;;;;;;9.68;6.25;;;12.30;99.90;;;;;;5026411;28;20073;-75
2022/05/10 04:11:38;;;;;;;9.98;5.65;;;12.30;99.90;;;;;;5008840;28;20045;-75
2022/05/10 04:14:04;;;;;;;8.45;5.88;;;12.30;99.90;;;;;;5026968;28;20146;-75
2022/05/10 04:16:30;;;;;;;8.77;7.28;;;12.40;99.90;;;;;;5027267;28;20854;-75
2022/05/10 04:18:56;;;;;;;8.18;6.53;;;12.40;99.90;;;;;;5027330;28;20124;-75
2022/05/10 04:21:21;;;;;;;6.35;4.90;;;12.40;99.90;;;;;;5026749;28;20041;-75
2022/05/10 04:23:47;;;;;;;12.38;6.15;;;12.40;99.90;;;;;;5008543;28;20407;-75
2022/05/10 04:26:15;;;;;;;10.82;5.70;;;12.40;99.90;;;;;;5026631;28;20047;-75
2022/05/10 04:28:41;;;;;;;9.50;6.13;;;12.40;99.90;;;;;;5026889;28;20048;-75
2022/05/10 04:31:07;;;;;;;8.63;7.15;;;12.40;99.90;;;;;;5026409;28;20045;-78
2022/05/10 04:33:33;;;;;;;7.15;5.82;;;12.40;99.90;;;;;;5027280;28;20444;-78
2022/05/10 04:35:59;;;;;;;8.02;6.40;;;12.40;99.90;;;;;;5027137;28;20099;-78
2022/05/10 04:38:25;;;;;;;6.97;5.18;;;12.40;99.90;;;;;;5007853;28;20041;-78
2022/05/10 04:43:37;;;;;;;11.57;6.22;;;12.40;99.90;;;;;;5008814;28;20056;-78
2022/05/10 04:46:03;;;;;;;8.38;5.95;;;12.50;99.90;;;;;;5026358;28;20050;-78
2022/05/10 04:48:29;;;;;;;6.85;6.15;;;12.50;99.90;;;;;;5024220;28;20029;-78
2022/05/10 04:50:55;;;;;;;18.08;7.15;;;12.50;99.90;;;;;;5026300;28;20048;-77
2022/05/10 04:53:22;;;;;;;9.18;6.82;;;12.50;99.90;;;;;;5007228;28;20464;-77
2022/05/10 04:55:49;;;;;;;8.07;6.32;;;12.50;99.90;;;;;;5026129;28;20121;-77
2022/05/10 04:58:15;;;;;;;9.32;6.45;;;12.60;99.90;;;;;;5026161;28;20069;-77
2022/05/10 05:00:41;;;;;;;11.48;5.93;;;12.60;99.90;;;;;;5026203;28;20044;-77
2022/05/10 05:03:07;;;;;;;7.07;5.90;;;12.60;99.90;;;;;;5025769;28;20050;-77
2022/05/10 05:05:32;;;;;;;12.00;6.80;;;12.60;99.90;;;;;;5026286;28;20113;-78
2022/05/10 05:07:58;;;;;;;7.93;5.60;;;12.60;99.90;;;;;;5026335;28;21053;-77
2022/05/10 05:10:24;;;;;;;6.93;6.30;;;12.70;99.90;;;;;;5007343;28;20052;-77
2022/05/10 05:12:50;;;;;;;5.57;4.95;;;12.70;99.90;;;;;;5025667;28;20042;-77
2022/05/10 05:15:17;;;;;;;17.15;6.43;;;12.70;99.90;;;;;;5025730;28;20104;-77
2022/05/10 05:17:42;;;;;;;14.43;6.40;;;12.70;99.90;;;;;;5025785;28;20037;-77
2022/05/10 05:20:09;;;;;;;10.38;6.18;;;12.80;99.90;;;;;;5025435;28;20171;-77
2022/05/10 05:22:35;;;;;;;10.23;5.32;;;12.80;99.90;;;;;;5007821;28;20060;-77
2022/05/10 05:25:00;;;;;;;8.98;5.00;;;12.80;99.90;;;;;;5024697;28;20042;-79
2022/05/10 05:27:26;;;;;;;8.65;5.95;;;12.80;99.90;;;;;;4991609;28;20499;-77
2022/05/10 05:29:52;;;;;;;6.75;5.45;;;12.80;99.90;;;;;;5007847;28;20424;-78
2022/05/10 05:32:22;;;;;;;11.32;6.72;;;12.90;99.90;;;;;;5019569;28;20048;-76
2022/05/10 05:34:48;;;;;;;10.95;5.05;;;12.90;99.90;;;;;;5024369;28;20504;-77
2022/05/10 05:39:58;;;;;;;9.65;5.90;;;13.00;99.90;;;;;;5006863;28;20138;-77
2022/05/10 05:42:23;;;;;;;5.00;4.53;;;13.10;99.90;;;;;;5023139;28;20559;-77
2022/05/10 05:44:49;;;;;;;8.70;6.90;;;13.10;99.90;;;;;;5019202;28;20049;-77
2022/05/10 05:47:14;;;;;;;9.73;5.35;;;13.10;99.90;;;;;;5006057;28;20411;-77
2022/05/10 05:49:40;;;;;;;9.05;5.63;;;13.20;99.90;;;;;;5024561;28;20457;-76
2022/05/10 05:52:06;;;;;;;7.78;5.30;;;13.20;99.90;;;;;;5023545;28;20403;-77
2022/05/10 05:54:32;;;;;;;5.88;4.90;;;13.30;99.90;;;;;;5023352;28;20041;-77
2022/05/10 05:57:02;;;;;;;7.38;5.60;;;13.40;99.90;;;;;;5006632;28;20295;-76
2022/05/10 05:59:28;;;;;;;5.97;5.47;;;13.40;99.90;;;;;;5031456;28;20396;-77
2022/05/10 06:01:54;;;;;;;8.45;5.72;;;13.40;99.90;;;;;;5025231;28;20053;-78
2022/05/10 06:04:20;;;;;;;10.02;6.40;;;13.50;99.90;;;;;;5021060;28;20041;-75
2022/05/10 06:06:45;;;;;;;8.15;5.70;;;13.60;99.90;;;;;;5023792;28;20477;-81
2022/05/10 06:09:11;;;;;;;5.68;5.07;;;13.60;99.90;;;;;;5005990;28;20411;-85
2022/05/10 06:11:36;;;;;;;10.50;5.13;;;13.70;99.90;;;;;;5024160;28;20045;-85
2022/05/10 06:14:02;;;;;;;8.40;5.82;;;13.80;99.90;;;;;;5024388;28;20053;-86
2022/05/10 06:16:28;;;;;;;8.32;5.30;;;13.80;99.90;;;;;;5024085;28;20508;-86
2022/05/10 06:18:54;;;;;;;7.60;4.75;;;13.80;99.90;;;;;;5006606;28;20638;-86
2022/05/10 06:21:20;;;;;;;6.97;5.05;;;13.90;99.90;;;;;;5023727;28;20397;-86
2022/05/10 06:23:46;;;;;;;6.28;4.35;;;13.90;99.90;;;;;;5023190;28;20049;-86
2022/05/10 06:26:12;;;;;;;5.88;5.00;;;14.00;99.90;;;;;;5024106;28;20041;-86
2022/05/10 06:28:37;;;;;;;9.13;6.65;;;14.00;99.90;;;;;;5006278;28;20088;-86
2022/05/10 06:31:08;;;;;;;13.23;5.72;;;14.10;99.90;;;;;;4989970;28;20144;-86
2022/05/10 06:33:34;;;;;;;5.93;5.28;;;14.10;99.90;;;;;;5024056;28;20085;-86
2022/05/10 06:35:59;;;;;;;5.05;4.57;;;14.10;99.90;;;;;;5024738;28;20087;-87
2022/05/10 06:38:28;;;;;;;11.02;4.57;;;14.20;99.90;;;;;;5005393;28;20084;-86
2022/05/10 06:40:59;;;;;;;5.95;5.35;;;14.20;99.90;;;;;;5010994;28;20053;-86
2022/05/10 06:43:35;;;;;;;7.82;5.00;;;14.20;99.90;;;;;;5008893;28;20045;-87
2022/05/10 06:46:11;;;;;;;6.68;4.63;;;14.30;99.90;;;;;;5008761;28;20041;-86
2022/05/10 06:48:38;;;;;;;6.30;4.75;;;14.30;99.90;;;;;;5024055;28;20104;-89
2022/05/10 06:51:08;;;;;;;4.93;3.92;;;14.40;99.90;;;;;;5008652;28;20565;-88
2022/05/10 06:53:35;;;;;;;14.80;5.63;;;14.40;99.90;;;;;;5007916;28;20491;-88
2022/05/10 06:56:01;;;;;;;11.02;5.45;;;14.40;99.90;;;;;;4989760;28;20041;-86
2022/05/10 06:58:26;;;;;;;7.95;5.40;;;14.40;99.90;;;;;;5001365;28;20041;-88
2022/05/10 07:00:52;;;;;;;12.82;6.45;;;14.40;99.90;;;;;;5027026;28;20087;-89
2022/05/10 07:03:25;;;;;;;11.10;6.72;;;14.40;99.90;;;;;;5009870;28;20367;-89
2022/05/10 07:05:50;;;;;;;6.63;4.70;;;14.50;99.90;;;;;;5027967;28;20073;-87
2022/05/10 07:08:16;;;;;;;7.22;5.70;;;14.50;99.90;;;;;;5025574;28;20534;-87
2022/05/10 07:10:42;;;;;;;6.32;4.65;;;14.50;99.90;;;;;;5009960;28;20143;-89
2022/05/10 07:13:08;;;;;;;6.18;4.93;;;14.50;99.90;;;;;;5010021;28;20133;-88
2022/05/10 07:15:34;;;;;;;7.32;5.30;;;14.50;99.90;;;;;;5027172;28;20034;-87
2022/05/10 07:18:01;;;;;;;6.40;5.10;;;14.50;99.90;;;;;;5010045;28;20045;-80
2022/05/10 07:20:26;;;;;;;8.63;5.05;;;14.50;99.90;;;;;;5010754;28;20521;-88
2022/05/10 07:22:52;;;;;;;8.60;6.88;;;14.60;99.90;;;;;;5026196;28;20495;-87
2022/05/10 07:25:24;;;;;;;5.00;4.45;;;14.60;99.90;;;;;;5027716;28;20038;-89
2022/05/10 07:27:49;;;;;;;7.10;5.03;;;14.60;99.90;;;;;;4999307;28;20045;-85
2022/05/10 07:30:15;;;;;;;5.40;4.30;;;14.70;99.90;;;;;;4992845;28;20056;-86
2022/05/10 07:32:42;;;;;;;8.43;5.40;;;14.70;99.90;;;;;;5021711;28;20536;-86
2022/05/10 07:35:08;;;;;;;10.43;5.45;;;14.70;99.90;;;;;;5006581;28;20080;-87
2022/05/10 07:37:34;;;;;;;7.95;6.25;;;14.80;99.90;;;;;;5027006;28;20045;-87
2022/05/10 07:40:01;;;;;;;6.95;5.93;;;14.80;99.90;;;;;;5006688;28;20033;-86
2022/05/10 07:42:27;;;;;;;6.72;5.70;;;14.80;99.90;;;;;;5006732;28;20033;-87
2022/05/10 07:44:52;;;;;;;11.55;5.55;;;14.90;99.90;;;;;;5026357;28;20044;-86
2022/05/10 07:47:18;;;;;;;8.02;5.32;;;14.90;99.90;;;;;;5027027;28;20041;-84
2022/05/10 07:49:44;;;;;;;11.55;5.47;;;15.00;99.90;;;;;;5027154;28;20404;-86
2022/05/10 07:52:09;;;;;;;9.40;5.80;;;15.00;99.90;;;;;;5024343;28;20518;-82
2022/05/10 07:54:36;;;;;;;7.93;5.15;;;15.10;99.90;;;;;;5007306;28;20049;-83
2022/05/10 07:57:03;;;;;;;5.68;4.15;;;15.20;99.90;;;;;;5025266;28;20049;-84
2022/05/10 07:59:29;;;;;;;14.63;6.38;;;15.30;99.90;;;;;;5008892;28;20049;-82
2022/05/10 08:01:54;;;;;;;6.38;5.50;;;15.30;99.90;;;;;;5008753;28;20056;-82
2022/05/10 08:04:20;;;;;;;4.38;3.97;;;15.40;99.90;;;;;;5008298;28;20132;-83
2022/05/10 08:06:46;;;;;;;7.75;4.55;;;15.50;99.90;;;;;;5008860;28;20072;-82
2022/05/10 08:09:12;;;;;;;5.30;4.80;;;15.50;99.90;;;;;;5007584;28;20555;-83
2022/05/10 08:11:39;;;;;;;5.65;4.95;;;15.50;99.90;;;;;;5008600;28;20040;-82
2022/05/10 08:14:05;;;;;;;6.43;3.60;;;15.60;99.90;;;;;;5025665;28;20084;-82
2022/05/10 08:16:32;;;;;;;5.38;4.03;;;15.60;99.90;;;;;;5042403;28;20041;-82
2022/05/10 08:18:58;;;;;;;6.55;3.75;;;15.70;99.90;;;;;;5027506;28;20120;-82
2022/05/10 08:21:24;;;;;;;8.52;4.28;;;15.80;99.90;;;;;;5026552;28;20041;-82
2022/05/10 08:23:52;;;;;;;3.80;3.03;;;15.90;99.90;;;;;;5024687;28;20038;-82
2022/05/10 08:26:20;;;;;;;5.72;3.85;;;16.00;99.90;;;;;;5021533;28;20122;-82
2022/05/10 08:28:45;;;;;;;7.45;3.65;;;16.00;99.90;;;;;;5026773;28;20084;-82
2022/05/10 08:31:11;;;;;;;7.00;4.22;;;16.10;99.90;;;;;;5025852;28;20081;-84
2022/05/10 08:33:39;;;;;;;7.28;2.80;;;16.20;99.90;;;;;;5024639;28;20075;-83
2022/05/10 08:36:06;;;;;;;14.50;3.63;;;16.30;99.90;;;;;;5007280;28;20140;-84
2022/05/10 08:38:32;;;;;;;3.58;3.28;;;16.40;99.90;;;;;;5024922;28;20234;-84
2022/05/10 08:41:17;;;;;;;5.97;3.42;;;16.50;99.90;;;;;;5041151;28;20554;-83
2022/05/10 08:44:10;;;;;;;5.53;4.05;;;16.60;99.90;;;;;;5040840;28;20042;-83
2022/05/10 08:46:43;;;;;;;5.55;3.92;;;16.80;99.90;;;;;;4998286;28;20049;-83
2022/05/10 08:49:41;;;;;;;7.72;2.60;;;16.90;99.90;;;;;;4987872;28;20048;-84
2022/05/10 08:52:07;;;;;;;6.03;3.50;;;17.00;99.90;;;;;;5005939;28;20237;-84
2022/05/10 08:54:34;;;;;;;4.78;2.90;;;17.10;99.90;;;;;;5004861;28;20053;-84
2022/05/10 08:57:05;;;;;;;14.07;3.42;;;17.20;99.90;;;;;;5006099;28;20152;-84
2022/05/10 08:59:54;;;;;;;13.60;3.38;;;17.30;99.90;;;;;;5020762;28;20088;-84
2022/05/10 09:02:41;;;;;;;4.55;3.17;;;17.30;99.90;;;;;;5020146;28;20508;-83
2022/05/10 09:05:36;;;;;;;4.07;2.45;;;17.30;99.90;;;;;;5005470;28;20073;-83
2022/05/10 09:08:46;;;;;;;4.65;2.92;;;17.30;99.90;;;;;;5020081;28;20049;-84
2022/05/10 09:11:14;;;;;;;2.97;2.30;;;17.40;99.90;;;;;;4984666;28;20058;-84
2022/05/10 09:13:42;;;;;;;4.85;3.65;;;17.40;99.90;;;;;;5005764;28;20396;-84
2022/05/10 09:16:10;;;;;;;3.63;2.58;;;17.40;99.90;;;;;;5020695;28;20467;-83
2022/05/10 09:18:49;;;;;;;2.95;2.72;;;17.50;99.90;;;;;;4987603;28;20488;-85
2022/05/10 09:21:22;;;;;;;3.10;2.67;;;17.60;99.90;;;;;;4987417;28;20081;-83
2022/05/10 09:24:25;;;;;;;2.97;2.65;;;17.70;99.90;;;;;;5004163;28;20046;-84
2022/05/10 09:26:56;;;;;;;3.97;2.25;;;17.70;99.90;;;;;;5005429;28;20077;-83
2022/05/10 09:29:35;;;;;;;7.95;3.88;;;17.80;99.90;;;;;;5020049;28;20054;-83
2022/05/10 09:35:22;;;;;;;6.10;3.33;;;17.90;99.90;;;;;;5007141;28;20060;-86
2022/05/10 09:37:48;;;;;;;4.53;3.33;;;18.10;99.90;;;;;;5007025;28;20053;-86
2022/05/10 09:40:38;;;;;;;2.83;2.42;;;18.10;99.90;;;;;;5024322;28;20469;-86
2022/05/10 09:43:26;;;;;;;5.78;3.10;;;18.20;99.90;;;;;;5039976;28;20045;-86
2022/05/10 09:46:08;;;;;;;5.85;3.42;;;18.20;99.90;;;;;;5005016;28;20057;-86
2022/05/10 09:48:34;;;;;;;5.17;3.57;;;18.30;99.90;;;;;;5010380;28;20124;-86
2022/05/10 09:51:17;;;;;;;6.68;2.58;;;18.30;99.90;;;;;;5022770;28;20037;-85
2022/05/10 09:53:42;;;;;;;8.90;4.13;;;18.30;99.90;;;;;;5022236;28;20037;-85
2022/05/10 09:56:27;;;;;;;3.08;2.35;;;18.30;99.90;;;;;;5024111;28;20094;-86
2022/05/10 09:58:56;;;;;;;6.10;3.53;;;18.40;99.90;;;;;;5022743;28;20864;-86
2022/05/10 10:01:48;;;;;;;3.65;3.17;;;18.40;99.90;;;;;;5022934;28;20040;-86
2022/05/10 10:04:22;;;;;;;14.95;3.60;;;18.40;99.90;;;;;;5006249;28;20045;-86
2022/05/10 10:07:07;;;;;;;3.15;2.85;;;18.40;99.90;;;;;;5003653;28;20556;-85
2022/05/10 10:09:35;;;;;;;6.72;2.83;;;18.40;99.90;;;;;;5004037;28;20048;-85
2022/05/10 10:12:02;;;;;;;3.95;3.10;;;18.40;99.90;;;;;;5006605;28;20128;-84
2022/05/10 10:14:38;;;;;;;7.15;3.63;;;18.40;99.90;;;;;;5007706;28;20053;-85
2022/05/10 10:17:04;;;;;;;5.38;3.45;;;18.40;99.90;;;;;;5006511;28;20045;-86
2022/05/10 10:19:44;;;;;;;4.82;3.13;;;18.40;99.90;;;;;;5007838;28;20525;-85
2022/05/10 10:22:19;;;;;;;5.15;4.28;;;18.30;99.90;;;;;;5023805;28;20045;-86
2022/05/10 10:24:55;;;;;;;3.47;2.70;;;18.40;99.90;;;;;;4990765;28;20045;-86
2022/05/10 10:27:28;;;;;;;5.22;3.63;;;18.30;99.90;;;;;;5005147;28;20459;-85
2022/05/10 10:30:19;;;;;;;6.47;3.78;;;18.40;99.90;;;;;;5005323;28;20046;-86
2022/05/10 10:33:10;;;;;;;9.15;3.30;;;18.40;99.90;;;;;;4984111;28;20116;-86
2022/05/10 10:36:02;;;;;;;5.30;4.17;;;18.40;99.90;;;;;;5006138;28;20046;-84
2022/05/10 10:38:59;;;;;;;9.02;4.45;;;18.40;99.90;;;;;;5023461;28;20288;-84
2022/05/10 10:41:42;;;;;;;5.38;3.13;;;18.40;99.90;;;;;;5023580;28;20132;-83
2022/05/10 10:44:27;;;;;;;3.70;2.85;;;18.40;99.90;;;;;;5005931;28;20057;-83
2022/05/10 10:47:20;;;;;;;8.30;3.53;;;18.40;99.90;;;;;;5024217;28;20407;-83
2022/05/10 10:49:54;;;;;;;5.43;3.28;;;18.50;99.90;;;;;;5005794;28;20065;-83
2022/05/10 10:52:21;;;;;;;3.58;2.63;;;18.50;99.90;;;;;;5022773;28;20041;-83
2022/05/10 10:54:47;;;;;;;1.95;1.75;;;18.60;99.90;;;;;;5023884;28;20128;-83
2022/05/10 10:57:48;;;;;;;8.23;3.35;;;18.70;99.90;;;;;;5024146;28;20049;-84
2022/05/10 11:00:17;;;;;;;3.90;3.00;;;18.70;99.90;;;;;;5023860;28;20034;-83
2022/05/10 11:02:55;;;;;;;5.25;2.08;;;18.70;99.90;;;;;;5022069;28;20103;-84
2022/05/10 11:05:40;;;;;;;3.88;2.10;;;18.70;99.90;;;;;;5005482;28;20203;-83
2022/05/10 11:08:24;;;;;;;3.30;2.55;;;18.70;99.90;;;;;;5005691;28;20041;-83
2022/05/10 11:10:57;;;;;;;7.70;2.78;;;18.70;99.90;;;;;;5024064;28;20069;-83
2022/05/10 11:13:39;;;;;;;3.58;3.05;;;18.70;99.90;;;;;;5018182;28;20111;-84
2022/05/10 11:16:17;;;;;;;;;;;18.80;99.90;;;;;;5017070;28;20045;-83
2022/05/10 11:19:20;;;;;;;3.13;2.08;;;18.90;99.90;;;;;;5016262;28;20347;-83
2022/05/10 11:21:55;;;;;;;2.83;1.80;;;18.90;99.90;;;;;;5003272;28;20114;-84
2022/05/10 11:24:58;;;;;;;5.25;2.65;;;19.00;99.90;;;;;;5003976;28;20488;-83
2022/05/10 11:28:26;;;;;;;2.67;2.00;;;19.00;99.90;;;;;;5002239;28;20067;-82
2022/05/10 11:31:00;;;;;;;2.80;2.22;;;19.00;99.90;;;;;;4946803;28;20455;-84
2022/05/10 11:33:59;;;;;;;6.07;2.17;;;19.10;99.90;;;;;;4915452;29;20043;-84
2022/05/10 11:36:36;;;;;;;3.28;1.58;;;19.10;99.90;;;;;;4991533;28;20565;-84
2022/05/10 11:39:37;;;;;;;2.75;1.65;;;19.20;99.90;;;;;;5014657;28;20049;-82
2022/05/10 11:42:17;;;;;;;3.50;2.17;;;19.30;99.90;;;;;;4965116;28;20060;-85
2022/05/10 11:44:55;;;;;;;1.85;1.65;;;19.30;99.90;;;;;;5015986;28;20370;-84
2022/05/10 11:47:45;;;;;;;5.07;1.75;;;19.40;99.90;;;;;;5009783;28;20281;-84
2022/05/10 11:50:24;;;;;;;1.45;1.20;;;19.40;99.90;;;;;;5027210;28;20045;-83
2022/05/10 11:53:17;;;;;;;1.90;1.63;;;19.40;99.90;;;;;;5007159;28;20046;-81
2022/05/10 11:55:59;;;;;;;2.55;1.33;;;19.50;99.90;;;;;;5013812;28;20500;-83
2022/05/10 11:58:28;;;;;;;1.10;1.00;;;19.50;99.90;;;;;;5009105;28;20061;-87
2022/05/10 12:00:59;;;;;;;3.53;1.08;;;19.50;99.90;;;;;;5008478;28;20092;-85
2022/05/10 12:03:43;;;;;;;1.23;0.88;;;19.60;99.90;;;;;;5039937;28;20050;-90
2022/05/10 12:06:23;;;;;;;1.05;1.02;;;19.60;99.90;;;;;;5033549;28;20049;-89
2022/05/10 12:08:54;;;;;;;5.57;1.02;;;19.60;99.90;;;;;;5003675;28;20400;-89
2022/05/10 12:11:32;;;;;;;2.53;0.75;;;19.60;99.90;;;;;;5026606;28;20076;-89
2022/05/10 12:22:48;;;;;;;2.10;1.08;;;19.50;99.90;;;;;;5004535;28;20592;-84
2022/05/10 12:25:53;;;;;;;1.02;0.93;;;19.40;99.90;;;;;;5016708;28;20046;-83
2022/05/10 12:28:41;;;;;;;2.25;0.82;;;19.40;96.70;;;;;;5004456;28;20091;-83
2022/05/10 12:31:32;;;;;;;1.33;1.23;;;19.30;98.40;;;;;;5011956;28;20041;-83
2022/05/10 12:34:06;;;;;;;0.85;0.80;;;19.30;98.40;;;;;;5023257;28;20034;-83
2022/05/10 12:36:35;;;;;;;1.60;1.23;;;19.30;99.90;;;;;;5017537;28;20071;-83
2022/05/10 12:39:25;;;;;;;1.30;1.20;;;19.30;99.90;;;;;;5021161;28;20037;-84
2022/05/10 12:42:00;;;;;;;2.45;1.15;;;19.20;99.90;;;;;;5014659;28;20045;-83
2022/05/10 12:44:40;;;;;;;2.38;1.30;;;19.10;99.90;;;;;;5030744;28;20496;-84
2022/05/10 12:47:15;;;;;;;6.22;1.35;;;19.00;99.90;;;;;;5002634;28;20077;-84
2022/05/10 12:49:46;;;;;;;1.60;1.50;;;18.90;99.90;;;;;;5022895;28;20049;-84
2022/05/10 12:52:26;;;;;;;4.65;2.63;;;18.90;99.90;;;;;;5006873;28;20132;-83
2022/05/10 12:55:00;;;;;;;1.95;1.73;;;18.80;99.90;;;;;;5006605;28;20046;-83
2022/05/10 12:57:44;;;;;;;1.42;1.35;;;18.70;99.90;;;;;;4995420;28;20080;-83
2022/05/10 13:00:12;;;;;;;2.72;1.40;;;18.70;99.90;;;;;;5022562;28;20503;-82
2022/05/10 13:02:52;;;;;;;1.17;1.08;;;18.70;99.90;;;;;;5025756;28;20060;-81
2022/05/10 13:05:31;;;;;;;1.83;1.52;;;18.70;99.90;;;;;;5017589;28;20128;-79
2022/05/10 13:08:09;;;;;;;1.63;1.20;;;18.60;99.90;;;;;;5007144;28;20166;-79
2022/05/10 13:10:36;;;;;;;1.17;0.98;;;18.60;99.90;;;;;;5019775;28;20480;-79
2022/05/10 13:13:15;;;;;;;6.97;1.80;;;18.60;99.90;;;;;;5014520;28;20070;-82
2022/05/10 13:15:44;;;;;;;1.52;1.15;;;18.60;99.90;;;;;;5023540;28;20041;-80
2022/05/10 13:18:19;;;;;;;1.63;1.27;;;18.60;99.90;;;;;;5001426;28;20042;-80
2022/05/10 13:20:49;;;;;;;2.05;1.23;;;18.50;99.90;;;;;;5025287;28;20030;-82
2022/05/10 13:23:15;;;;;;;2.85;1.67;;;18.50;99.90;;;;;;5030769;28;20107;-82
2022/05/10 13:25:42;;;;;;;1.20;1.10;;;18.40;99.90;;;;;;5008591;28;20128;-82
2022/05/10 13:28:08;;;;;;;3.97;1.40;;;18.40;99.90;;;;;;5012292;28;20384;-82
2022/05/10 13:30:35;;;;;;;2.30;1.40;;;18.30;99.90;;;;;;5008166;28;20042;-82
2022/05/10 13:33:01;;;;;;;1.63;1.52;;;18.30;99.90;;;;;;5025573;28;20052;-80